PWSweather.com
Personal Weather Stations
Station Observations
MIGLIARINO
Migliarino, FiscagliaIT 44027

MigliarinoFiscagliaIT 44027

Lat: 44.769682, Lon: 11.93112700000006

Elevation: 3

Station Type: PCE Fws 20

Latest ConditionsUpdated 4:15:03 AM GMT+01:01 Saturday, Mar 23, 2019
Currently Today's Max Today's Min Today's Average
Temperature 43.0°F6.1°C 50.0°F10.0°C 42.8°F6.0°C 46.3°F7.9°C
Dew Point 33.1°F0.6°C 34.0°F1.1°C 31.7°F-0.2°C 32.7°F0.4°C
Winds 2.3 mph S3.7 kmh S 3.5 mph -5.6 kmh - - 1.2 mph 1.9 kmh
Wind Gusts 3.5 mph5.6 kmh 4.6 mph7.4 kmh - -
Humidity 68% 68% 53% 59%
Pressure 30.28 in1025.4 mb 30.32 in1026.8 mb 30.28 in1025.4 mb -
Hour Temp Dew Point Humidity Winds Wind Gusts Pressure Precip Precip Rate Daily Precip Total
04:15 AM 43.0°F6.1°C 33.1°F0.6°C 68% 2.3 mph S3.7 kmh S 3.5 mph5.6 kmh 30.28 in1025.4 mb - 0.00 in0.0 mm 0.00 in0.0 mm
04:10 AM 42.8°F6.0°C 33.0°F0.6°C 68% 1.2 mph W1.9 kmh W 4.6 mph7.4 kmh 30.28 in1025.4 mb - 0.00 in0.0 mm 0.00 in0.0 mm
04:00 AM 42.8°F6.0°C 32.2°F0.1°C 66% 1.2 mph S1.9 kmh S 2.3 mph3.7 kmh 30.28 in1025.4 mb - 0.00 in0.0 mm 0.00 in0.0 mm
03:55 AM 43.0°F6.1°C 32.4°F0.2°C 66% 1.2 mph SW1.9 kmh SW 3.5 mph5.6 kmh 30.28 in1025.4 mb - 0.00 in0.0 mm 0.00 in0.0 mm
03:50 AM 43.5°F6.4°C 32.5°F0.3°C 65% Calm Calm 2.3 mph3.7 kmh 30.28 in1025.4 mb - 0.00 in0.0 mm 0.00 in0.0 mm
03:45 AM 43.7°F6.5°C 32.7°F0.4°C 65% 1.2 mph S1.9 kmh S 3.5 mph5.6 kmh 30.28 in1025.4 mb - 0.00 in0.0 mm 0.00 in0.0 mm
03:40 AM 44.1°F6.7°C 32.7°F0.4°C 64% 1.2 mph S1.9 kmh S 3.5 mph5.6 kmh 30.29 in1025.7 mb - 0.00 in0.0 mm 0.00 in0.0 mm
03:35 AM 44.2°F6.8°C 32.8°F0.4°C 64% Calm Calm 2.3 mph3.7 kmh 30.28 in1025.4 mb - 0.00 in0.0 mm 0.00 in0.0 mm
03:30 AM 44.2°F6.8°C 32.4°F0.2°C 63% 1.2 mph S1.9 kmh S 2.3 mph3.7 kmh 30.29 in1025.7 mb - 0.00 in0.0 mm 0.00 in0.0 mm
03:25 AM 44.2°F6.8°C 32.4°F0.2°C 63% 1.2 mph W1.9 kmh W 2.3 mph3.7 kmh 30.28 in1025.4 mb - 0.00 in0.0 mm 0.00 in0.0 mm
03:20 AM 44.4°F6.9°C 32.6°F0.3°C 63% 1.2 mph N1.9 kmh N 2.3 mph3.7 kmh 30.28 in1025.4 mb - 0.00 in0.0 mm 0.00 in0.0 mm
03:15 AM 44.6°F7.0°C 32.4°F0.2°C 62% Calm Calm 2.3 mph3.7 kmh 30.28 in1025.4 mb - 0.00 in0.0 mm 0.00 in0.0 mm
03:10 AM 44.8°F7.1°C 32.5°F0.3°C 62% 1.2 mph SE1.9 kmh SE 2.3 mph3.7 kmh 30.28 in1025.4 mb - 0.00 in0.0 mm 0.00 in0.0 mm
03:00 AM 44.6°F7.0°C 32.4°F0.2°C 62% 1.2 mph W1.9 kmh W 3.5 mph5.6 kmh 30.28 in1025.4 mb - 0.00 in0.0 mm 0.00 in0.0 mm
02:55 AM 44.4°F6.9°C 32.2°F0.1°C 62% 1.2 mph S1.9 kmh S 3.5 mph5.6 kmh 30.28 in1025.4 mb - 0.00 in0.0 mm 0.00 in0.0 mm
02:50 AM 44.4°F6.9°C 32.2°F0.1°C 62% 1.2 mph W1.9 kmh W 3.5 mph5.6 kmh 30.29 in1025.7 mb - 0.00 in0.0 mm 0.00 in0.0 mm
02:45 AM 44.6°F7.0°C 32.0°F0.0°C 61% 1.2 mph SE1.9 kmh SE 1.2 mph1.9 kmh 30.28 in1025.4 mb - 0.00 in0.0 mm 0.00 in0.0 mm
02:40 AM 44.8°F7.1°C 31.7°F-0.2°C 60% 1.2 mph SW1.9 kmh SW 2.3 mph3.7 kmh 30.29 in1025.7 mb - 0.00 in0.0 mm 0.00 in0.0 mm
02:35 AM 45.1°F7.3°C 32.1°F0.1°C 60% 2.3 mph SW3.7 kmh SW 3.5 mph5.6 kmh 30.29 in1025.7 mb - 0.00 in0.0 mm 0.00 in0.0 mm
02:30 AM 45.3°F7.4°C 32.3°F0.2°C 60% 1.2 mph SW1.9 kmh SW 4.6 mph7.4 kmh 30.29 in1025.7 mb - 0.00 in0.0 mm 0.00 in0.0 mm
02:25 AM 45.7°F7.6°C 32.2°F0.1°C 59% 1.2 mph SW1.9 kmh SW 3.5 mph5.6 kmh 30.29 in1025.7 mb - 0.00 in0.0 mm 0.00 in0.0 mm
02:20 AM 45.9°F7.7°C 32.3°F0.2°C 59% 1.2 mph SSW1.9 kmh SSW 3.5 mph5.6 kmh 30.29 in1025.7 mb - 0.00 in0.0 mm 0.00 in0.0 mm
02:15 AM 45.9°F7.7°C 32.7°F0.4°C 60% 2.3 mph SW3.7 kmh SW 4.6 mph7.4 kmh 30.29 in1025.7 mb - 0.00 in0.0 mm 0.00 in0.0 mm
02:00 AM 45.9°F7.7°C 32.3°F0.2°C 59% Calm Calm 2.3 mph3.7 kmh 30.30 in1026.1 mb - 0.00 in0.0 mm 0.00 in0.0 mm
01:55 AM 46.2°F7.9°C 32.2°F0.1°C 58% 1.2 mph S1.9 kmh S 3.5 mph5.6 kmh 30.30 in1026.1 mb - 0.00 in0.0 mm 0.00 in0.0 mm
01:50 AM 46.6°F8.1°C 33.0°F0.6°C 59% 1.2 mph SE1.9 kmh SE 2.3 mph3.7 kmh 30.30 in1026.1 mb - 0.00 in0.0 mm 0.00 in0.0 mm
01:45 AM 46.8°F8.2°C 33.2°F0.7°C 59% 1.2 mph NE1.9 kmh NE 3.5 mph5.6 kmh 30.30 in1026.1 mb - 0.00 in0.0 mm 0.00 in0.0 mm
01:40 AM 46.9°F8.3°C 32.9°F0.5°C 58% Calm Calm 1.2 mph1.9 kmh 30.31 in1026.4 mb - 0.00 in0.0 mm 0.00 in0.0 mm
01:35 AM 47.1°F8.4°C 33.1°F0.6°C 58% Calm Calm 1.2 mph1.9 kmh 30.31 in1026.4 mb - 0.00 in0.0 mm 0.00 in0.0 mm
01:30 AM 47.3°F8.5°C 32.8°F0.4°C 57% 1.2 mph SW1.9 kmh SW 3.5 mph5.6 kmh 30.31 in1026.4 mb - 0.00 in0.0 mm 0.00 in0.0 mm
01:25 AM 47.5°F8.6°C 32.6°F0.3°C 56% 1.2 mph E1.9 kmh E 1.2 mph1.9 kmh 30.31 in1026.4 mb - 0.00 in0.0 mm 0.00 in0.0 mm
01:20 AM 47.7°F8.7°C 32.7°F0.4°C 56% 1.2 mph S1.9 kmh S 1.2 mph1.9 kmh 30.31 in1026.4 mb - 0.00 in0.0 mm 0.00 in0.0 mm
01:15 AM 47.7°F8.7°C 32.7°F0.4°C 56% 1.2 mph W1.9 kmh W 2.3 mph3.7 kmh 30.31 in1026.4 mb - 0.00 in0.0 mm 0.00 in0.0 mm
01:10 AM 47.9°F8.8°C 32.5°F0.3°C 55% Calm Calm 2.3 mph3.7 kmh 30.31 in1026.4 mb - 0.00 in0.0 mm 0.00 in0.0 mm
01:00 AM 48.6°F9.2°C 32.7°F0.4°C 54% 1.2 mph S1.9 kmh S 2.3 mph3.7 kmh 30.32 in1026.8 mb - 0.00 in0.0 mm 0.00 in0.0 mm
12:55 AM 48.8°F9.3°C 32.8°F0.4°C 54% 1.2 mph SW1.9 kmh SW 3.5 mph5.6 kmh 30.31 in1026.4 mb - 0.00 in0.0 mm 0.00 in0.0 mm
12:50 AM 49.1°F9.5°C 32.7°F0.4°C 53% 1.2 mph S1.9 kmh S 2.3 mph3.7 kmh 30.32 in1026.8 mb - 0.00 in0.0 mm 0.00 in0.0 mm
12:45 AM 49.5°F9.7°C 33.0°F0.6°C 53% 3.5 mph NW5.6 kmh NW 3.5 mph5.6 kmh 30.32 in1026.8 mb - 0.00 in0.0 mm 0.00 in0.0 mm
12:40 AM 49.5°F9.7°C 33.0°F0.6°C 53% 1.2 mph WSW1.9 kmh WSW 2.3 mph3.7 kmh 30.32 in1026.8 mb - 0.00 in0.0 mm 0.00 in0.0 mm
12:35 AM 49.5°F9.7°C 33.5°F0.8°C 54% 1.2 mph SW1.9 kmh SW 3.5 mph5.6 kmh 30.31 in1026.4 mb - 0.00 in0.0 mm 0.00 in0.0 mm
12:30 AM 49.5°F9.7°C 33.5°F0.8°C 54% 1.2 mph SW1.9 kmh SW 2.3 mph3.7 kmh 30.32 in1026.8 mb - 0.00 in0.0 mm 0.00 in0.0 mm
12:25 AM 49.5°F9.7°C 33.5°F0.8°C 54% 1.2 mph S1.9 kmh S 3.5 mph5.6 kmh 30.31 in1026.4 mb - 0.00 in0.0 mm 0.00 in0.0 mm
12:20 AM 49.5°F9.7°C 33.5°F0.8°C 54% 1.2 mph WSW1.9 kmh WSW 3.5 mph5.6 kmh 30.31 in1026.4 mb - 0.00 in0.0 mm 0.00 in0.0 mm
12:15 AM 49.6°F9.8°C 33.7°F0.9°C 54% 1.2 mph SE1.9 kmh SE 3.5 mph5.6 kmh 30.31 in1026.4 mb - 0.00 in0.0 mm 0.00 in0.0 mm
12:10 AM 49.8°F9.9°C 33.8°F1.0°C 54% 2.3 mph S3.7 kmh S 3.5 mph5.6 kmh 30.31 in1026.4 mb - 0.00 in0.0 mm 0.00 in0.0 mm
12:00 AM 50.0°F10.0°C 34.0°F1.1°C 54% 1.2 mph SW1.9 kmh SW 3.5 mph5.6 kmh 30.32 in1026.8 mb - 0.00 in0.0 mm 0.00 in0.0 mm